createdAt,value
2019-05-11T00:00:59.037Z,6.23
2019-05-11T00:03:25.101Z,6.10
2019-05-11T00:05:51.048Z,6.43
2019-05-11T00:08:16.991Z,6.03
2019-05-11T00:10:42.917Z,6.20
2019-05-11T00:13:08.814Z,6.33
2019-05-11T00:15:34.761Z,6.00
2019-05-11T00:18:00.703Z,5.90
2019-05-11T00:20:26.593Z,5.80
2019-05-11T00:22:52.675Z,5.80
2019-05-11T00:25:18.924Z,5.63
2019-05-11T00:27:44.968Z,6.10
2019-05-11T00:30:12.198Z,5.73
2019-05-11T00:32:38.261Z,5.80
2019-05-11T00:35:05.897Z,6.13
2019-05-11T00:37:31.835Z,5.97
2019-05-11T00:40:12.076Z,5.47
2019-05-11T00:42:25.684Z,5.63
2019-05-11T00:44:51.689Z,5.80
2019-05-11T00:47:17.656Z,5.80
2019-05-11T00:49:43.617Z,5.70
2019-05-11T00:52:09.910Z,5.50
2019-05-11T00:54:35.812Z,6.63
2019-05-11T00:57:02.080Z,6.47
2019-05-11T00:59:28.048Z,7.10
2019-05-11T01:01:53.942Z,7.70
2019-05-11T01:04:20.051Z,6.80
2019-05-11T01:06:46.133Z,5.10
2019-05-11T01:09:12.065Z,5.23
2019-05-11T01:11:38.085Z,6.17
2019-05-11T01:14:04.127Z,7.77
2019-05-11T01:16:30.031Z,6.83
2019-05-11T01:18:56.063Z,7.23
2019-05-11T01:21:21.966Z,6.73
2019-05-11T01:23:47.913Z,7.00
2019-05-11T01:26:13.885Z,7.23
2019-05-11T01:28:39.845Z,7.80
2019-05-11T01:31:05.766Z,8.30
2019-05-11T01:33:31.721Z,7.33
2019-05-11T01:35:57.654Z,7.47
2019-05-11T01:38:23.577Z,7.90
2019-05-11T01:40:58.137Z,7.13
2019-05-11T01:43:17.315Z,7.43
2019-05-11T01:45:43.253Z,7.60
2019-05-11T01:48:09.267Z,8.13
2019-05-11T01:50:35.195Z,7.70
2019-05-11T01:53:01.134Z,7.70
2019-05-11T01:55:27.038Z,8.10
2019-05-11T01:57:53.220Z,8.33
2019-05-11T02:00:19.227Z,9.00
2019-05-11T02:02:45.138Z,8.77
2019-05-11T02:05:11.280Z,9.17
2019-05-11T02:07:37.203Z,9.77
2019-05-11T02:10:04.695Z,10.07
2019-05-11T02:12:30.593Z,9.73
2019-05-11T02:14:56.530Z,10.47
2019-05-11T02:17:22.467Z,9.83
2019-05-11T02:19:48.370Z,9.63
2019-05-11T02:22:14.324Z,9.53
2019-05-11T02:24:40.229Z,10.07
2019-05-11T02:27:06.174Z,10.40
2019-05-11T02:29:32.244Z,10.13
2019-05-11T02:31:58.247Z,10.27
2019-05-11T02:34:24.191Z,10.83
2019-05-11T02:36:50.087Z,10.57
2019-05-11T02:39:16.026Z,10.60
2019-05-11T02:41:42.986Z,12.37
2019-05-11T02:44:08.971Z,11.67
2019-05-11T02:46:35.085Z,11.67
2019-05-11T02:49:02.095Z,11.53
2019-05-11T02:51:28.151Z,11.37
2019-05-11T02:53:54.567Z,11.30
2019-05-11T02:56:20.612Z,11.00
2019-05-11T02:58:46.898Z,11.63
2019-05-11T03:01:12.906Z,11.93
2019-05-11T03:03:38.811Z,12.03
2019-05-11T03:06:04.742Z,11.77
2019-05-11T03:08:30.646Z,12.03
2019-05-11T03:10:56.597Z,11.73
2019-05-11T03:13:22.599Z,12.47
2019-05-11T03:15:48.536Z,12.17
2019-05-11T03:18:14.503Z,12.60
2019-05-11T03:20:40.513Z,13.00
2019-05-11T03:23:06.412Z,12.13
2019-05-11T03:25:32.368Z,11.93
2019-05-11T03:27:58.295Z,12.10
2019-05-11T03:30:24.417Z,12.13
2019-05-11T03:32:50.421Z,12.30
2019-05-11T03:35:16.367Z,12.50
2019-05-11T03:37:42.415Z,12.37
2019-05-11T03:40:08.805Z,12.83
2019-05-11T03:42:35.040Z,12.93
2019-05-11T03:45:04.664Z,12.93
2019-05-11T03:47:30.690Z,13.20
2019-05-11T03:49:56.617Z,13.13
2019-05-11T03:52:22.522Z,12.97
2019-05-11T03:54:48.690Z,13.53
2019-05-11T03:57:14.598Z,13.43
2019-05-11T03:59:40.641Z,13.70
2019-05-11T04:02:06.699Z,12.90
2019-05-11T04:04:32.724Z,12.90
2019-05-11T04:06:58.625Z,13.73
2019-05-11T04:09:24.576Z,13.03
2019-05-11T04:11:50.520Z,13.03
2019-05-11T04:14:16.514Z,13.13
2019-05-11T04:16:42.464Z,13.97
2019-05-11T04:19:08.364Z,13.97
2019-05-11T04:21:34.263Z,13.67
2019-05-11T04:24:00.528Z,13.80
2019-05-11T04:26:26.465Z,14.43
2019-05-11T04:28:52.653Z,14.87
2019-05-11T04:31:18.591Z,14.67
2019-05-11T04:33:44.530Z,14.73
2019-05-11T04:36:10.623Z,14.67
2019-05-11T04:38:36.530Z,14.70
2019-05-11T04:41:02.535Z,14.80
2019-05-11T04:43:28.492Z,16.07
2019-05-11T04:45:54.379Z,15.77
2019-05-11T04:48:20.324Z,15.63
2019-05-11T04:50:46.261Z,14.80
2019-05-11T04:53:12.218Z,14.97
2019-05-11T04:55:38.121Z,15.23
2019-05-11T04:58:04.184Z,15.53
2019-05-11T05:00:30.331Z,16.10
2019-05-11T05:02:56.229Z,15.40
2019-05-11T05:05:22.162Z,15.60
2019-05-11T05:07:50.422Z,15.17
2019-05-11T05:10:19.933Z,15.43
2019-05-11T05:12:50.807Z,16.77
2019-05-11T05:15:12.074Z,15.97
2019-05-11T05:17:39.106Z,15.07
2019-05-11T05:20:06.413Z,15.83
2019-05-11T05:22:32.492Z,15.63
2019-05-11T05:24:58.497Z,14.60
2019-05-11T05:27:24.430Z,15.10
2019-05-11T05:29:50.434Z,14.37
2019-05-11T05:32:16.473Z,14.30
2019-05-11T05:34:42.414Z,14.03
2019-05-11T05:37:08.437Z,14.13
2019-05-11T05:39:34.345Z,14.33
2019-05-11T05:42:00.286Z,15.60
2019-05-11T05:44:27.855Z,14.83
2019-05-11T05:46:54.273Z,15.00
2019-05-11T05:49:20.228Z,15.97
2019-05-11T05:51:46.127Z,14.60
2019-05-11T05:54:12.088Z,14.67
2019-05-11T05:56:38.041Z,14.73
2019-05-11T05:59:04.138Z,13.77
2019-05-11T06:01:30.101Z,14.97
2019-05-11T06:03:56.132Z,14.97
2019-05-11T06:06:22.047Z,15.23
2019-05-11T06:08:48.048Z,15.03
2019-05-11T06:11:14.064Z,13.90
2019-05-11T06:13:45.275Z,14.70
2019-05-11T06:16:07.806Z,14.40
2019-05-11T06:18:33.745Z,13.83
2019-05-11T06:20:59.648Z,13.63
2019-05-11T06:23:25.686Z,12.80
2019-05-11T06:25:51.589Z,13.43
2019-05-11T06:28:17.562Z,15.27
2019-05-11T06:30:43.507Z,15.20
2019-05-11T06:33:09.432Z,14.83
2019-05-11T06:35:35.384Z,15.43
2019-05-11T06:38:01.334Z,14.50
2019-05-11T06:40:28.605Z,14.90
2019-05-11T06:42:54.848Z,14.80
2019-05-11T06:45:20.751Z,13.80
2019-05-11T06:47:46.651Z,12.73
2019-05-11T06:50:13.610Z,12.97
2019-05-11T06:52:39.512Z,12.87
2019-05-11T06:55:05.694Z,11.83
2019-05-11T06:57:31.603Z,12.20
2019-05-11T06:59:57.882Z,12.63
2019-05-11T07:02:24.125Z,12.80
2019-05-11T07:04:50.020Z,12.17
2019-05-11T07:07:16.109Z,11.77
2019-05-11T07:09:42.016Z,10.00
2019-05-11T07:12:09.222Z,10.60
2019-05-11T07:14:35.421Z,11.17
2019-05-11T07:17:01.582Z,10.93
2019-05-11T07:19:27.486Z,10.50
2019-05-11T07:21:53.438Z,10.10
2019-05-11T07:24:19.440Z,11.00
2019-05-11T07:26:45.349Z,10.80
2019-05-11T07:29:11.329Z,11.23
2019-05-11T07:31:37.354Z,11.27
2019-05-11T07:34:03.483Z,11.80
2019-05-11T07:36:30.787Z,13.67
2019-05-11T07:38:57.991Z,14.37
2019-05-11T07:41:24.146Z,13.63
2019-05-11T07:43:50.047Z,10.93
2019-05-11T07:46:18.240Z,11.50
2019-05-11T07:48:44.364Z,12.20
2019-05-11T07:51:10.284Z,12.50
2019-05-11T07:53:38.116Z,13.37
2019-05-11T07:56:04.207Z,13.33
2019-05-11T07:58:30.209Z,16.17
2019-05-11T08:00:58.125Z,16.90
2019-05-11T08:03:24.102Z,18.10
2019-05-11T08:05:50.114Z,16.63
2019-05-11T08:08:18.079Z,16.87
2019-05-11T08:10:44.448Z,16.83
2019-05-11T08:13:10.351Z,15.80
2019-05-11T08:15:38.238Z,79.57
2019-05-11T08:18:04.383Z,22.47
2019-05-11T08:20:30.360Z,13.43
2019-05-11T08:22:58.507Z,12.60
2019-05-11T08:25:24.110Z,12.57
2019-05-11T08:27:50.057Z,10.53
2019-05-11T08:30:18.793Z,11.87
2019-05-11T08:32:44.975Z,12.20
2019-05-11T08:35:11.529Z,11.17
2019-05-11T08:37:38.970Z,11.90
2019-05-11T08:40:07.725Z,11.00
2019-05-11T08:42:33.776Z,10.33
2019-05-11T08:45:15.927Z,11.10
2019-05-11T08:47:28.441Z,8.97
2019-05-11T08:49:54.514Z,10.17
2019-05-11T08:52:20.692Z,9.70
2019-05-11T08:54:48.677Z,9.53
2019-05-11T08:57:14.720Z,9.60
2019-05-11T08:59:40.661Z,8.90
2019-05-11T09:02:08.176Z,8.30
2019-05-11T09:04:34.347Z,8.03
2019-05-11T09:07:00.389Z,7.03
2019-05-11T09:09:28.692Z,6.50
2019-05-11T09:11:54.592Z,5.87
2019-05-11T09:14:20.677Z,6.97
2019-05-11T09:16:48.881Z,7.47
2019-05-11T09:19:14.641Z,7.13
2019-05-11T09:21:40.526Z,7.40
2019-05-11T09:24:08.441Z,7.33
2019-05-11T09:26:34.335Z,7.97
2019-05-11T09:29:00.275Z,7.97
2019-05-11T09:31:27.913Z,8.30
2019-05-11T09:33:54.046Z,7.60
2019-05-11T09:36:20.058Z,7.70
2019-05-11T09:38:48.617Z,7.43
2019-05-11T09:41:13.980Z,7.40
2019-05-11T09:43:39.957Z,8.60
2019-05-11T09:46:08.076Z,8.23
2019-05-11T09:48:33.717Z,8.83
2019-05-11T09:50:59.758Z,8.93
2019-05-11T09:53:25.661Z,8.10
2019-05-11T09:55:51.561Z,9.30
2019-05-11T09:58:19.791Z,9.83
2019-05-11T10:00:47.490Z,10.60
2019-05-11T10:03:13.697Z,11.00
2019-05-11T10:05:39.614Z,11.20
2019-05-11T10:08:07.731Z,11.10
2019-05-11T10:10:33.737Z,10.90
2019-05-11T10:12:59.721Z,11.47
2019-05-11T10:15:27.769Z,11.43
2019-05-11T10:17:53.480Z,12.73
2019-05-11T10:20:19.383Z,13.33
2019-05-11T10:22:45.342Z,13.30
2019-05-11T10:25:11.588Z,12.97
2019-05-11T10:27:38.354Z,13.50
2019-05-11T10:30:08.168Z,14.23
2019-05-11T10:32:34.214Z,14.60
2019-05-11T10:35:00.272Z,13.47
2019-05-11T10:37:28.279Z,14.20
2019-05-11T10:39:54.588Z,13.93
2019-05-11T10:42:20.498Z,14.07
2019-05-11T10:44:47.839Z,12.40
2019-05-11T10:47:14.229Z,11.97
2019-05-11T10:49:40.265Z,12.90
2019-05-11T10:52:06.270Z,13.63
2019-05-11T10:54:32.312Z,14.17
2019-05-11T10:56:58.406Z,13.60
2019-05-11T10:59:24.606Z,13.80
2019-05-11T11:01:50.577Z,13.17
2019-05-11T11:04:18.394Z,13.93
2019-05-11T11:06:44.624Z,13.73
2019-05-11T11:09:10.788Z,14.10
2019-05-11T11:11:38.260Z,13.13
2019-05-11T11:14:04.495Z,13.90
2019-05-11T11:16:36.893Z,14.43
2019-05-11T11:18:58.891Z,13.30
2019-05-11T11:21:27.886Z,13.13
2019-05-11T11:23:53.895Z,13.00
2019-05-11T11:26:20.886Z,13.20
2019-05-11T11:28:47.789Z,11.60
2019-05-11T11:31:14.280Z,11.23
2019-05-11T11:33:40.182Z,10.27
2019-05-11T11:36:08.373Z,9.90
2019-05-11T11:38:34.266Z,10.77
2019-05-11T11:41:00.299Z,10.13
2019-05-11T11:43:28.585Z,11.07
2019-05-11T11:45:54.148Z,10.77
2019-05-11T11:48:20.103Z,9.83
2019-05-11T11:50:48.012Z,9.17
2019-05-11T11:53:13.829Z,8.67
2019-05-11T11:55:39.775Z,9.63
2019-05-11T11:58:08.111Z,8.67
2019-05-11T12:00:33.844Z,7.63
2019-05-11T12:02:59.743Z,8.57
2019-05-11T12:05:28.059Z,8.97
2019-05-11T12:07:53.893Z,6.40
2019-05-11T12:10:19.997Z,7.63
2019-05-11T12:12:47.576Z,7.97
2019-05-11T12:15:13.934Z,7.87
2019-05-11T12:17:39.883Z,5.40
2019-05-11T12:20:08.755Z,5.77
2019-05-11T12:22:34.310Z,5.03
2019-05-11T12:25:00.389Z,5.67
2019-05-11T12:27:28.534Z,6.10
2019-05-11T12:29:54.210Z,6.63
2019-05-11T12:32:20.142Z,6.60
2019-05-11T12:34:48.245Z,5.77
2019-05-11T12:37:14.007Z,6.33
2019-05-11T12:39:40.037Z,6.00
2019-05-11T12:42:05.976Z,5.53
2019-05-11T12:44:31.881Z,6.40
2019-05-11T12:46:58.494Z,6.40
2019-05-11T12:49:24.419Z,6.20
2019-05-11T12:51:50.376Z,6.70
2019-05-11T12:54:18.556Z,5.50
2019-05-11T12:56:44.150Z,5.50
2019-05-11T12:59:10.055Z,6.10
2019-05-11T13:01:38.108Z,6.40
2019-05-11T13:04:04.971Z,5.77
2019-05-11T13:06:31.198Z,6.87
2019-05-11T13:08:58.774Z,7.10
2019-05-11T13:11:24.895Z,9.37
2019-05-11T13:13:50.824Z,8.53
2019-05-11T13:16:18.367Z,5.63
2019-05-11T13:18:44.685Z,4.60
2019-05-11T13:21:11.281Z,9.03
2019-05-11T13:23:38.257Z,8.23
2019-05-11T13:26:04.681Z,6.20
2019-05-11T13:28:30.806Z,4.80
2019-05-11T13:30:57.942Z,5.33
2019-05-11T13:33:24.055Z,4.73
2019-05-11T13:35:50.095Z,4.30
2019-05-11T13:38:17.859Z,4.83
2019-05-11T13:40:45.117Z,3.90
2019-05-11T13:43:11.031Z,4.90
2019-05-11T13:45:38.795Z,5.17
2019-05-11T13:48:05.075Z,4.70
2019-05-11T13:50:31.206Z,4.00
2019-05-11T13:52:58.364Z,4.93
2019-05-11T13:55:24.679Z,2.57
2019-05-11T13:57:50.937Z,2.73
2019-05-11T14:00:17.638Z,3.17
2019-05-11T14:02:43.870Z,4.27
2019-05-11T14:05:09.906Z,3.70
2019-05-11T14:07:37.971Z,3.77
2019-05-11T14:10:04.203Z,2.80
2019-05-11T14:12:30.209Z,3.87
2019-05-11T14:14:57.663Z,5.63
2019-05-11T14:17:24.863Z,3.83
2019-05-11T14:19:51.180Z,4.03
2019-05-11T14:22:17.903Z,3.80
2019-05-11T14:24:44.140Z,3.60
2019-05-11T14:27:10.100Z,2.63
2019-05-11T14:29:37.905Z,2.83
2019-05-11T14:32:03.881Z,3.50
2019-05-11T14:34:29.813Z,3.00
2019-05-11T14:36:58.046Z,3.37
2019-05-11T14:39:24.781Z,3.30
2019-05-11T14:41:51.024Z,3.40
2019-05-11T14:44:18.153Z,4.03
2019-05-11T14:46:44.315Z,4.17
2019-05-11T14:49:10.392Z,3.67
2019-05-11T14:51:38.849Z,3.57
2019-05-11T14:54:04.274Z,3.60
2019-05-11T14:56:30.187Z,3.60
2019-05-11T14:58:58.011Z,3.17
2019-05-11T15:01:24.038Z,3.60
2019-05-11T15:03:50.218Z,3.53
2019-05-11T15:06:18.595Z,3.33
2019-05-11T15:08:44.021Z,3.03
2019-05-11T15:11:10.030Z,2.97
2019-05-11T15:13:38.025Z,2.97
2019-05-11T15:16:03.979Z,3.30
2019-05-11T15:18:38.614Z,2.83
2019-05-11T15:20:58.137Z,2.80
2019-05-11T15:23:24.341Z,2.80
2019-05-11T15:25:50.465Z,2.60
2019-05-11T15:28:18.094Z,2.80
2019-05-11T15:30:44.860Z,3.03
2019-05-11T15:33:10.868Z,3.73
2019-05-11T15:35:37.731Z,6.70
2019-05-11T15:38:03.849Z,4.20
2019-05-11T15:40:29.824Z,4.40
2019-05-11T15:42:55.749Z,3.43
2019-05-11T15:45:21.744Z,3.00
2019-05-11T15:47:48.741Z,4.07
2019-05-11T15:50:15.998Z,5.03
2019-05-11T15:52:42.276Z,3.60
2019-05-11T15:55:09.309Z,6.57
2019-05-11T15:57:35.621Z,4.30
2019-05-11T16:00:02.832Z,3.50
2019-05-11T16:02:28.983Z,3.60
2019-05-11T16:04:55.331Z,3.63
2019-05-11T16:07:21.606Z,4.70
2019-05-11T16:09:48.695Z,4.57
2019-05-11T16:12:14.834Z,4.90
2019-05-11T16:14:40.991Z,4.33
2019-05-11T16:17:08.755Z,3.23
2019-05-11T16:19:34.817Z,2.87
2019-05-11T16:22:00.765Z,5.27
2019-05-11T16:24:26.800Z,3.30
2019-05-11T16:26:52.902Z,3.07
2019-05-11T16:29:19.234Z,2.83
2019-05-11T16:31:45.366Z,3.20
2019-05-11T16:34:11.322Z,2.13
2019-05-11T16:36:38.977Z,2.30
2019-05-11T16:39:05.253Z,2.40
2019-05-11T16:41:31.233Z,2.00
2019-05-11T16:43:58.515Z,1.87
2019-05-11T16:46:24.812Z,2.00
2019-05-11T16:48:50.901Z,3.53
2019-05-11T16:51:17.753Z,2.40
2019-05-11T16:53:43.967Z,2.10
2019-05-11T16:56:10.027Z,2.30
2019-05-11T16:58:38.159Z,2.33
2019-05-11T17:01:03.813Z,2.60
2019-05-11T17:03:29.995Z,2.30
2019-05-11T17:05:55.949Z,2.20
2019-05-11T17:08:21.878Z,2.60
2019-05-11T17:10:48.180Z,2.50
2019-05-11T17:13:14.423Z,2.17
2019-05-11T17:15:40.425Z,2.30
2019-05-11T17:18:08.060Z,2.10
2019-05-11T17:20:34.526Z,2.40
2019-05-11T17:23:00.545Z,2.50
2019-05-11T17:25:28.655Z,2.67
2019-05-11T17:27:54.536Z,5.27
2019-05-11T17:30:20.689Z,3.30
2019-05-11T17:32:49.388Z,2.80
2019-05-11T17:35:14.784Z,2.67
2019-05-11T17:37:40.694Z,2.57
2019-05-11T17:40:09.079Z,2.60
2019-05-11T17:42:37.481Z,3.17
2019-05-11T17:45:08.071Z,3.30
2019-05-11T17:47:34.396Z,3.00
2019-05-11T17:50:03.925Z,3.10
2019-05-11T17:52:30.113Z,3.40
2019-05-11T17:54:56.063Z,3.50
2019-05-11T17:57:22.102Z,3.70
2019-05-11T17:59:48.162Z,3.60
2019-05-11T18:02:14.071Z,3.57
2019-05-11T18:04:40.006Z,4.00
2019-05-11T18:07:05.992Z,3.83
2019-05-11T18:09:31.931Z,4.43
2019-05-11T18:11:58.580Z,4.30
2019-05-11T18:14:24.666Z,4.10
2019-05-11T18:16:50.586Z,4.33
2019-05-11T18:19:18.403Z,4.20
2019-05-11T18:21:44.428Z,4.57
2019-05-11T18:24:10.478Z,4.40
2019-05-11T18:26:38.235Z,4.97
2019-05-11T18:29:05.275Z,5.33
2019-05-11T18:31:31.321Z,5.20
2019-05-11T18:33:58.093Z,5.40
2019-05-11T18:36:24.436Z,5.10
2019-05-11T18:38:50.692Z,5.10
2019-05-11T18:41:17.040Z,4.80
2019-05-11T18:43:43.004Z,5.03
2019-05-11T18:46:08.955Z,5.10
2019-05-11T18:48:35.074Z,4.73
2019-05-11T18:51:01.052Z,4.73
2019-05-11T18:53:28.839Z,4.60
2019-05-11T18:55:55.400Z,12.90
2019-05-11T18:58:21.352Z,7.80
2019-05-11T19:00:48.793Z,4.07
2019-05-11T19:03:14.926Z,8.60
2019-05-11T19:05:41.037Z,4.27
2019-05-11T19:08:07.122Z,5.97
2019-05-11T19:10:33.289Z,4.40
2019-05-11T19:13:01.155Z,5.25
2019-05-11T19:15:27.198Z,4.80
2019-05-11T19:17:53.135Z,4.60
2019-05-11T19:20:19.125Z,4.20
2019-05-11T19:22:45.230Z,4.20
2019-05-11T19:25:11.471Z,3.93
2019-05-11T19:27:37.428Z,3.97
2019-05-11T19:30:07.990Z,3.80
2019-05-11T19:32:38.279Z,4.17
2019-05-11T19:35:04.844Z,3.93
2019-05-11T19:37:32.163Z,4.10
2019-05-11T19:39:58.239Z,3.87
2019-05-11T19:42:24.371Z,3.60
2019-05-11T19:44:50.390Z,3.83
2019-05-11T19:47:18.099Z,3.80
2019-05-11T19:49:44.242Z,3.97
2019-05-11T19:52:11.267Z,4.20
2019-05-11T19:54:38.444Z,4.50
2019-05-11T19:57:04.509Z,4.83
2019-05-11T19:59:30.436Z,4.27
2019-05-11T20:01:59.785Z,4.27
2019-05-11T20:04:24.525Z,4.73
2019-05-11T20:06:50.608Z,4.60
2019-05-11T20:09:18.971Z,4.90
2019-05-11T20:11:44.441Z,4.80
2019-05-11T20:14:10.642Z,9.00
2019-05-11T20:16:36.560Z,7.70
2019-05-11T20:19:02.607Z,6.37
2019-05-11T20:21:29.049Z,4.70
2019-05-11T20:23:55.193Z,5.20
2019-05-11T20:26:21.391Z,4.37
2019-05-11T20:28:48.300Z,4.70
2019-05-11T20:31:14.627Z,4.83
2019-05-11T20:33:40.684Z,4.90
2019-05-11T20:36:08.655Z,4.80
2019-05-11T20:38:34.733Z,4.87
2019-05-11T20:41:00.789Z,4.03
2019-05-11T20:43:27.967Z,4.57
2019-05-11T20:45:56.199Z,4.43
2019-05-11T20:48:21.956Z,4.27
2019-05-11T20:50:48.293Z,4.70
2019-05-11T20:53:14.525Z,5.03
2019-05-11T20:55:40.547Z,4.93
2019-05-11T20:58:08.597Z,4.57
2019-05-11T21:00:35.539Z,4.90
2019-05-11T21:03:01.866Z,5.03
2019-05-11T21:05:27.995Z,5.30
2019-05-11T21:07:53.914Z,5.80
2019-05-11T21:10:19.917Z,5.13
2019-05-11T21:12:45.916Z,5.70
2019-05-11T21:15:12.314Z,5.50
2019-05-11T21:17:38.474Z,5.47
2019-05-11T21:20:06.192Z,4.93
2019-05-11T21:22:32.164Z,5.07
2019-05-11T21:24:58.300Z,5.10
2019-05-11T21:27:24.301Z,4.60
2019-05-11T21:29:50.519Z,4.90
2019-05-11T21:32:18.021Z,4.80
2019-05-11T21:34:44.089Z,4.73
2019-05-11T21:37:10.084Z,5.70
2019-05-11T21:39:37.888Z,5.60
2019-05-11T21:42:03.987Z,5.17
2019-05-11T21:44:30.453Z,5.30
2019-05-11T21:46:56.595Z,5.30
2019-05-11T21:49:22.681Z,5.60
2019-05-11T21:52:02.504Z,5.60
2019-05-11T21:54:17.560Z,5.40
2019-05-11T21:56:44.689Z,5.60
2019-05-11T21:59:10.637Z,5.50
2019-05-11T22:01:38.490Z,5.60
2019-05-11T22:04:04.649Z,5.30
2019-05-11T22:06:30.706Z,6.83
2019-05-11T22:08:58.941Z,6.43
2019-05-11T22:11:24.442Z,7.07
2019-05-11T22:13:50.405Z,7.33
2019-05-11T22:16:17.333Z,7.80
2019-05-11T22:18:43.417Z,9.50
2019-05-11T22:21:09.322Z,9.40
2019-05-11T22:23:35.261Z,9.10
2019-05-11T22:26:01.492Z,10.27
2019-05-11T22:28:28.493Z,9.50
2019-05-11T22:30:54.752Z,8.67
2019-05-11T22:33:20.935Z,8.80
2019-05-11T22:35:48.079Z,9.50
2019-05-11T22:38:15.292Z,9.67
2019-05-11T22:40:41.531Z,8.70
2019-05-11T22:43:09.411Z,9.10
2019-05-11T22:45:35.568Z,9.57
2019-05-11T22:48:01.695Z,10.27
2019-05-11T22:50:29.075Z,10.47
2019-05-11T22:52:55.524Z,10.10
2019-05-11T22:55:21.432Z,11.13
2019-05-11T22:57:48.529Z,10.00
2019-05-11T23:00:18.583Z,10.70
2019-05-11T23:02:44.672Z,10.13
2019-05-11T23:05:11.027Z,9.50
2019-05-11T23:07:37.700Z,9.63
2019-05-11T23:10:05.392Z,9.50
2019-05-11T23:12:31.333Z,10.67
2019-05-11T23:14:58.534Z,10.60
2019-05-11T23:17:24.478Z,10.50
2019-05-11T23:19:50.462Z,10.77
2019-05-11T23:22:18.321Z,9.90
2019-05-11T23:24:44.273Z,10.43
2019-05-11T23:27:10.254Z,10.07
2019-05-11T23:29:38.243Z,10.37
2019-05-11T23:32:04.098Z,9.37
2019-05-11T23:34:30.013Z,9.37
2019-05-11T23:36:56.046Z,10.40
2019-05-11T23:39:22.056Z,9.03
2019-05-11T23:41:48.353Z,9.70
2019-05-11T23:44:14.423Z,9.77
2019-05-11T23:46:40.390Z,9.13
2019-05-11T23:49:08.630Z,9.70
2019-05-11T23:51:34.237Z,9.60
2019-05-11T23:54:00.143Z,10.23
2019-05-11T23:56:28.179Z,9.27
2019-05-11T23:58:57.713Z,9.20
